createdAt,value
2018-09-17T00:01:14.633Z,100.00
2018-09-17T00:03:42.973Z,100.00
2018-09-17T00:06:11.298Z,100.00
2018-09-17T00:08:39.609Z,100.00
2018-09-17T00:11:07.917Z,100.00
2018-09-17T00:13:36.237Z,100.00
2018-09-17T00:16:04.550Z,100.00
2018-09-17T00:18:32.845Z,100.00
2018-09-17T00:21:01.168Z,100.00
2018-09-17T00:23:29.469Z,100.00
2018-09-17T00:25:57.766Z,100.00
2018-09-17T00:28:26.082Z,100.00
2018-09-17T00:30:54.397Z,100.00
2018-09-17T00:33:23.526Z,100.00
2018-09-17T00:35:51.858Z,100.00
2018-09-17T00:38:20.157Z,100.00
2018-09-17T00:40:48.487Z,100.00
2018-09-17T00:43:16.777Z,100.00
2018-09-17T00:45:45.083Z,100.00
2018-09-17T00:48:13.389Z,100.00
2018-09-17T00:50:41.708Z,100.00
2018-09-17T00:53:10.025Z,100.00
2018-09-17T00:55:38.349Z,100.00
2018-09-17T00:58:06.669Z,100.00
2018-09-17T01:00:34.973Z,100.00
2018-09-17T01:03:03.277Z,100.00
2018-09-17T01:05:31.598Z,100.00
2018-09-17T01:07:59.896Z,100.00
2018-09-17T01:10:28.197Z,100.00
2018-09-17T01:12:56.513Z,100.00
2018-09-17T01:15:24.838Z,100.00
2018-09-17T01:17:53.149Z,100.00
2018-09-17T01:20:21.445Z,100.00
2018-09-17T01:22:49.769Z,100.00
2018-09-17T01:25:18.069Z,100.00
2018-09-17T01:27:46.379Z,100.00
2018-09-17T01:30:14.691Z,100.00
2018-09-17T01:32:42.998Z,100.00
2018-09-17T01:35:11.300Z,100.00
2018-09-17T01:37:39.610Z,100.00
2018-09-17T01:40:07.930Z,100.00
2018-09-17T01:42:36.229Z,100.00
2018-09-17T01:45:04.533Z,100.00
2018-09-17T01:47:32.846Z,100.00
2018-09-17T01:50:01.146Z,100.00
2018-09-17T01:52:29.459Z,100.00
2018-09-17T01:54:57.757Z,100.00
2018-09-17T01:57:26.077Z,100.00
2018-09-17T01:59:54.377Z,100.00
2018-09-17T02:02:22.683Z,100.00
2018-09-17T02:04:51.001Z,100.00
2018-09-17T02:07:19.301Z,100.00
2018-09-17T02:09:47.694Z,100.00
2018-09-17T02:12:15.917Z,100.00
2018-09-17T02:14:44.238Z,100.00
2018-09-17T02:17:12.537Z,100.00
2018-09-17T02:19:40.842Z,100.00
2018-09-17T02:22:09.160Z,100.00
2018-09-17T02:24:37.468Z,100.00
2018-09-17T02:27:05.773Z,100.00
2018-09-17T02:29:34.073Z,100.00
2018-09-17T02:32:02.389Z,100.00
2018-09-17T02:34:30.693Z,100.00
2018-09-17T02:36:58.997Z,100.00
2018-09-17T02:39:27.317Z,100.00
2018-09-17T02:41:55.618Z,100.00
2018-09-17T02:44:23.934Z,100.00
2018-09-17T02:46:52.237Z,100.00
2018-09-17T02:49:20.550Z,100.00
2018-09-17T02:51:48.857Z,100.00
2018-09-17T02:54:17.160Z,100.00
2018-09-17T02:56:45.473Z,100.00
2018-09-17T02:59:13.786Z,100.00
2018-09-17T03:01:42.098Z,100.00
2018-09-17T03:04:10.406Z,100.00
2018-09-17T03:06:38.729Z,100.00
2018-09-17T03:09:07.030Z,100.00
2018-09-17T03:11:35.344Z,100.00
2018-09-17T03:14:03.654Z,100.00
2018-09-17T03:16:31.959Z,100.00
2018-09-17T03:19:00.273Z,100.00
2018-09-17T03:21:28.582Z,100.00
2018-09-17T03:23:56.892Z,100.00
2018-09-17T03:26:25.205Z,100.00
2018-09-17T03:28:53.513Z,100.00
2018-09-17T03:31:21.834Z,100.00
2018-09-17T03:33:50.141Z,100.00
2018-09-17T03:36:18.441Z,100.00
2018-09-17T03:38:46.754Z,100.00
2018-09-17T03:41:15.054Z,100.00
2018-09-17T03:43:43.419Z,100.00
2018-09-17T03:46:11.731Z,100.00
2018-09-17T03:48:39.985Z,100.00
2018-09-17T03:51:08.300Z,100.00
2018-09-17T03:53:36.605Z,100.00
2018-09-17T03:56:04.913Z,100.00
2018-09-17T03:58:33.217Z,100.00
2018-09-17T04:01:01.534Z,100.00
2018-09-17T04:03:29.837Z,100.00
2018-09-17T04:05:58.142Z,100.00
2018-09-17T04:08:26.461Z,100.00
2018-09-17T04:10:54.755Z,100.00
2018-09-17T04:13:23.069Z,100.00
2018-09-17T04:15:51.377Z,100.00
2018-09-17T04:18:19.697Z,100.00
2018-09-17T04:20:48.001Z,100.00
2018-09-17T04:23:16.305Z,100.00
2018-09-17T04:25:44.616Z,100.00
2018-09-17T04:28:12.917Z,100.00
2018-09-17T04:30:41.229Z,100.00
2018-09-17T04:33:09.542Z,100.00
2018-09-17T04:35:37.849Z,100.00
2018-09-17T04:38:06.161Z,100.00
2018-09-17T04:40:34.472Z,100.00
2018-09-17T04:43:02.777Z,100.00
2018-09-17T04:45:31.082Z,100.00
2018-09-17T04:47:59.394Z,100.00
2018-09-17T04:50:27.726Z,100.00
2018-09-17T05:34:21.863Z,100.00
2018-09-17T05:36:50.174Z,100.00
2018-09-17T05:39:18.497Z,100.00
2018-09-17T05:41:46.802Z,100.00
2018-09-17T05:44:15.129Z,100.00
2018-09-17T05:46:43.439Z,100.00
2018-09-17T05:49:11.762Z,100.00
2018-09-17T05:51:40.083Z,100.00
2018-09-17T05:54:08.398Z,100.00
2018-09-17T05:56:36.719Z,100.00
2018-09-17T05:59:05.051Z,100.00
2018-09-17T06:01:33.357Z,100.00
2018-09-17T06:04:01.776Z,100.00
2018-09-17T06:06:30.083Z,100.00
2018-09-17T06:08:58.415Z,100.00
2018-09-17T06:11:26.725Z,100.00
2018-09-17T06:13:55.129Z,100.00
2018-09-17T06:16:23.447Z,100.00
2018-09-17T06:18:51.786Z,100.00
2018-09-17T06:21:20.136Z,100.00
2018-09-17T06:23:48.593Z,100.00
2018-09-17T06:26:16.918Z,100.00
2018-09-17T06:28:45.264Z,100.00
2018-09-17T06:31:13.534Z,100.00
2018-09-17T06:33:41.855Z,100.00
2018-09-17T06:36:10.179Z,100.00
2018-09-17T06:38:38.489Z,100.00
2018-09-17T06:41:06.802Z,100.00
2018-09-17T06:43:35.123Z,100.00
2018-09-17T06:46:03.433Z,100.00
2018-09-17T06:48:31.735Z,100.00
2018-09-17T06:51:00.063Z,100.00
2018-09-17T06:53:28.371Z,100.00
2018-09-17T06:55:56.691Z,100.00
2018-09-17T06:58:25.013Z,100.00
2018-09-17T07:00:53.326Z,100.00
2018-09-17T07:03:21.644Z,100.00
2018-09-17T07:05:49.943Z,100.00
2018-09-17T07:08:18.266Z,100.00
2018-09-17T07:10:46.586Z,100.00
2018-09-17T07:13:14.894Z,100.00
2018-09-17T07:15:43.203Z,100.00
2018-09-17T07:21:08.545Z,100.00
2018-09-17T07:23:36.857Z,100.00
2018-09-17T07:26:05.159Z,100.00
2018-09-17T07:28:33.469Z,100.00
2018-09-17T07:31:01.777Z,100.00
2018-09-17T07:33:30.085Z,100.00
2018-09-17T07:35:58.445Z,100.00
2018-09-17T07:38:26.769Z,100.00
2018-09-17T07:40:55.141Z,100.00
2018-09-17T07:43:23.434Z,100.00
2018-09-17T07:45:51.836Z,100.00
2018-09-17T07:48:20.172Z,100.00
2018-09-17T07:50:48.490Z,100.00
2018-09-17T07:53:16.813Z,100.00
2018-09-17T07:55:45.098Z,100.00
2018-09-17T07:58:13.430Z,100.00
2018-09-17T08:00:41.836Z,100.00
2018-09-17T08:03:10.230Z,100.00
2018-09-17T08:05:38.543Z,99.52
2018-09-17T08:08:06.896Z,98.90
2018-09-17T08:10:35.150Z,99.74
2018-09-17T08:13:03.440Z,96.52
2018-09-17T08:15:31.783Z,95.63
2018-09-17T08:18:00.082Z,93.92
2018-09-17T08:20:28.430Z,94.27
2018-09-17T08:22:56.733Z,93.44
2018-09-17T08:25:25.134Z,94.07
2018-09-17T08:27:53.428Z,90.37
2018-09-17T08:30:21.765Z,85.97
2018-09-17T08:32:50.095Z,85.18
2018-09-17T08:35:18.400Z,88.57
2018-09-17T08:37:46.713Z,84.05
2018-09-17T08:40:15.028Z,83.13
2018-09-17T08:42:43.341Z,80.55
2018-09-17T08:45:11.698Z,80.74
2018-09-17T08:47:40.029Z,81.37
2018-09-17T08:50:08.350Z,80.52
2018-09-17T08:52:36.712Z,78.85
2018-09-17T08:55:05.018Z,77.94
2018-09-17T08:57:33.324Z,77.00
2018-09-17T09:00:01.663Z,76.53
2018-09-17T09:02:29.976Z,72.66
2018-09-17T09:04:58.338Z,73.95
2018-09-17T09:07:26.613Z,72.43
2018-09-17T09:09:54.918Z,72.26
2018-09-17T09:12:23.228Z,69.85
2018-09-17T09:14:51.542Z,72.06
2018-09-17T09:17:19.840Z,68.30
2018-09-17T09:19:48.160Z,68.14
2018-09-17T09:22:16.483Z,67.67
2018-09-17T09:24:44.779Z,66.39
2018-09-17T09:27:13.090Z,65.40
2018-09-17T09:29:41.387Z,64.42
2018-09-17T09:32:09.726Z,64.39
2018-09-17T09:34:38.048Z,64.35
2018-09-17T09:37:06.361Z,65.29
2018-09-17T09:39:34.682Z,64.31
2018-09-17T09:42:03.013Z,64.79
2018-09-17T09:44:31.321Z,65.04
2018-09-17T09:46:59.611Z,63.87
2018-09-17T09:49:27.918Z,64.73
2018-09-17T09:51:56.221Z,65.78
2018-09-17T09:54:24.529Z,63.46
2018-09-17T09:56:52.833Z,62.86
2018-09-17T09:59:21.141Z,63.98
2018-09-17T10:01:49.473Z,64.30
2018-09-17T10:04:17.764Z,61.04
2018-09-17T10:06:46.072Z,60.65
2018-09-17T10:09:14.399Z,61.78
2018-09-17T10:20:56.337Z,58.62
2018-09-17T10:23:24.629Z,60.39
2018-09-17T10:25:52.957Z,58.27
2018-09-17T10:28:21.250Z,59.28
2018-09-17T10:30:49.554Z,58.79
2018-09-17T10:33:17.858Z,58.05
2018-09-17T10:35:46.155Z,59.06
2018-09-17T10:38:14.502Z,56.55
2018-09-17T10:40:42.793Z,55.23
2018-09-17T10:43:11.089Z,56.04
2018-09-17T10:45:39.398Z,57.00
2018-09-17T10:48:07.702Z,57.14
2018-09-17T10:50:36.009Z,57.71
2018-09-17T10:53:04.313Z,55.10
2018-09-17T10:55:32.602Z,54.43
2018-09-17T10:58:00.908Z,54.75
2018-09-17T11:00:29.197Z,53.48
2018-09-17T11:02:57.512Z,53.45
2018-09-17T11:05:25.805Z,53.32
2018-09-17T11:07:54.108Z,53.42
2018-09-17T11:10:22.399Z,52.99
2018-09-17T11:12:50.713Z,54.23
2018-09-17T11:15:19.029Z,50.90
2018-09-17T11:17:47.345Z,52.61
2018-09-17T11:20:15.651Z,53.96
2018-09-17T11:22:43.962Z,50.14
2018-09-17T11:25:12.310Z,52.29
2018-09-17T11:27:40.562Z,50.82
2018-09-17T11:30:08.886Z,50.14
2018-09-17T11:32:37.187Z,49.66
2018-09-17T11:35:05.470Z,50.18
2018-09-17T11:37:33.769Z,50.72
2018-09-17T11:40:02.066Z,50.32
2018-09-17T11:42:30.369Z,49.70
2018-09-17T11:44:58.666Z,51.39
2018-09-17T11:47:26.970Z,49.22
2018-09-17T11:49:55.270Z,48.96
2018-09-17T11:52:23.565Z,49.16
2018-09-17T11:54:51.903Z,49.50
2018-09-17T11:57:20.202Z,49.38
2018-09-17T11:59:48.526Z,50.70
2018-09-17T12:02:16.896Z,48.89
2018-09-17T12:04:45.584Z,48.72
2018-09-17T12:07:14.497Z,48.25
2018-09-17T12:09:42.829Z,48.76
2018-09-17T12:12:11.125Z,49.22
2018-09-17T12:14:39.430Z,48.33
2018-09-17T12:17:07.717Z,48.48
2018-09-17T12:19:36.007Z,48.40
2018-09-17T12:22:04.312Z,47.43
2018-09-17T12:24:32.811Z,49.40
2018-09-17T12:27:01.077Z,47.40
2018-09-17T12:29:29.374Z,46.87
2018-09-17T12:31:57.679Z,48.04
2018-09-17T12:34:25.975Z,48.62
2018-09-17T12:36:54.281Z,47.41
2018-09-17T12:39:22.590Z,46.45
2018-09-17T12:41:50.989Z,45.77
2018-09-17T12:44:19.302Z,46.86
2018-09-17T12:46:47.656Z,47.84
2018-09-17T12:49:15.954Z,46.38
2018-09-17T12:51:44.263Z,45.62
2018-09-17T12:54:12.557Z,45.17
2018-09-17T12:56:40.865Z,46.63
2018-09-17T12:59:09.167Z,46.67
2018-09-17T13:01:37.457Z,47.45
2018-09-17T13:04:05.761Z,46.10
2018-09-17T13:06:34.058Z,46.23
2018-09-17T13:09:02.367Z,46.52
2018-09-17T13:11:30.677Z,46.80
2018-09-17T13:13:58.961Z,47.75
2018-09-17T13:16:27.284Z,45.81
2018-09-17T13:18:55.565Z,45.93
2018-09-17T13:21:23.870Z,46.94
2018-09-17T13:23:52.174Z,47.17
2018-09-17T13:26:20.482Z,46.17
2018-09-17T13:28:48.769Z,45.91
2018-09-17T13:31:17.057Z,46.03
2018-09-17T13:33:45.386Z,45.89
2018-09-17T13:36:13.690Z,46.50
2018-09-17T13:38:41.986Z,46.90
2018-09-17T13:41:10.282Z,46.97
2018-09-17T13:43:38.595Z,48.09
2018-09-17T13:46:06.891Z,46.27
2018-09-17T13:48:35.183Z,45.84
2018-09-17T13:51:03.486Z,47.29
2018-09-17T13:53:31.894Z,46.83
2018-09-17T13:56:00.147Z,46.74
2018-09-17T13:58:28.437Z,47.61
2018-09-17T14:00:56.763Z,48.11
2018-09-17T14:03:25.069Z,45.46
2018-09-17T14:05:53.354Z,46.74
2018-09-17T14:08:21.654Z,47.74
2018-09-17T14:10:50.155Z,46.27
2018-09-17T14:13:18.457Z,43.00
2018-09-17T14:15:46.728Z,42.00
2018-09-17T14:18:15.065Z,43.76
2018-09-17T14:20:43.341Z,45.20
2018-09-17T14:23:11.626Z,43.46
2018-09-17T14:25:39.929Z,44.65
2018-09-17T14:28:08.235Z,44.34
2018-09-17T14:30:36.548Z,44.09
2018-09-17T14:36:06.328Z,43.55
2018-09-17T14:38:34.631Z,43.50
2018-09-17T14:41:02.973Z,44.55
2018-09-17T14:43:31.321Z,41.90
2018-09-17T14:45:59.590Z,43.71
2018-09-17T14:48:27.848Z,45.26
2018-09-17T14:50:56.154Z,47.10
2018-09-17T14:53:24.465Z,44.39
2018-09-17T14:55:52.737Z,44.81
2018-09-17T14:58:21.147Z,45.52
2018-09-17T15:00:49.333Z,45.48
2018-09-17T15:03:17.637Z,42.98
2018-09-17T15:05:45.977Z,44.74
2018-09-17T15:08:14.318Z,44.30
2018-09-17T15:10:42.566Z,43.66
2018-09-17T15:13:10.878Z,44.93
2018-09-17T15:15:39.181Z,44.00
2018-09-17T15:18:07.482Z,45.71
2018-09-17T15:20:35.790Z,43.76
2018-09-17T15:23:04.082Z,43.80
2018-09-17T15:25:32.373Z,43.49
2018-09-17T15:28:00.754Z,43.23
2018-09-17T15:30:28.969Z,43.35
2018-09-17T15:32:57.282Z,44.16
2018-09-17T15:35:25.565Z,43.33
2018-09-17T15:37:53.870Z,45.72
2018-09-17T15:40:22.243Z,44.33
2018-09-17T15:42:50.460Z,43.05
2018-09-17T15:45:18.753Z,42.46
2018-09-17T15:47:47.041Z,43.40
2018-09-17T15:50:15.357Z,46.00
2018-09-17T15:52:43.625Z,45.78
2018-09-17T15:55:11.946Z,43.90
2018-09-17T15:57:40.236Z,45.51
2018-09-17T16:00:08.548Z,43.40
2018-09-17T16:02:36.907Z,45.06
2018-09-17T16:05:05.110Z,45.61
2018-09-17T16:07:33.418Z,44.50
2018-09-17T16:10:01.714Z,45.32
2018-09-17T16:12:30.099Z,49.06
2018-09-17T16:14:58.353Z,48.60
2018-09-17T16:17:26.654Z,48.45
2018-09-17T16:19:55.017Z,48.30
2018-09-17T16:22:23.255Z,48.79
2018-09-17T16:24:51.553Z,47.12
2018-09-17T16:27:19.849Z,49.68
2018-09-17T16:29:48.158Z,47.87
2018-09-17T16:32:16.449Z,46.90
2018-09-17T16:34:44.848Z,47.59
2018-09-17T16:37:13.266Z,48.47
2018-09-17T16:39:41.595Z,49.16
2018-09-17T16:42:09.889Z,47.54
2018-09-17T16:44:38.180Z,49.25
2018-09-17T16:47:06.534Z,48.06
2018-09-17T16:49:34.822Z,47.88
2018-09-17T16:52:03.193Z,47.77
2018-09-17T16:54:31.477Z,48.51
2018-09-17T16:56:59.765Z,47.67
2018-09-17T16:59:28.078Z,49.34
2018-09-17T17:01:56.363Z,48.89
2018-09-17T17:04:24.662Z,48.70
2018-09-17T17:06:52.963Z,49.11
2018-09-17T17:09:21.266Z,48.93
2018-09-17T17:11:49.637Z,50.20
2018-09-17T17:14:18.190Z,50.18
2018-09-17T17:16:46.523Z,50.98
2018-09-17T17:19:14.903Z,51.53
2018-09-17T17:21:43.183Z,50.49
2018-09-17T17:24:11.425Z,51.67
2018-09-17T17:26:39.718Z,50.85
2018-09-17T17:29:08.006Z,50.72
2018-09-17T17:31:36.299Z,51.35
2018-09-17T17:34:04.627Z,50.95
2018-09-17T17:36:32.910Z,50.38
2018-09-17T17:39:01.218Z,50.24
2018-09-17T17:41:29.515Z,50.01
2018-09-17T17:43:57.826Z,49.74
2018-09-17T17:46:26.124Z,50.65
2018-09-17T17:48:54.409Z,52.28
2018-09-17T17:51:22.815Z,51.50
2018-09-17T17:53:51.125Z,50.23
2018-09-17T17:56:19.453Z,51.76
2018-09-17T17:58:47.749Z,51.92
2018-09-17T18:01:16.143Z,51.15
2018-09-17T18:03:44.410Z,49.75
2018-09-17T18:06:12.765Z,49.33
2018-09-17T18:08:43.642Z,49.40
2018-09-17T18:11:11.953Z,50.90
2018-09-17T18:13:40.257Z,49.59
2018-09-17T18:16:08.565Z,49.39
2018-09-17T18:18:36.927Z,50.06
2018-09-17T18:21:05.283Z,51.68
2018-09-17T18:23:33.537Z,52.03
2018-09-17T18:26:01.885Z,52.05
2018-09-17T18:28:30.233Z,52.01
2018-09-17T18:30:58.562Z,51.40
2018-09-17T18:33:26.862Z,52.18
2018-09-17T18:35:55.175Z,52.80
2018-09-17T18:38:23.814Z,53.38
2018-09-17T18:40:52.186Z,53.54
2018-09-17T18:43:20.515Z,55.05
2018-09-17T18:45:48.811Z,54.14
2018-09-17T18:48:17.241Z,55.66
2018-09-17T18:50:45.568Z,54.91
2018-09-17T18:53:14.016Z,56.74
2018-09-17T18:55:52.216Z,57.07
2018-09-17T18:58:23.276Z,57.53
2018-09-17T19:00:51.577Z,57.06
2018-09-17T19:03:19.977Z,56.92
2018-09-17T19:05:48.462Z,57.45
2018-09-17T19:08:16.730Z,59.04
2018-09-17T19:10:45.030Z,58.54
2018-09-17T19:13:13.345Z,58.08
2018-09-17T19:15:49.153Z,59.66
2018-09-17T19:18:17.521Z,60.38
2018-09-17T19:20:45.992Z,63.06
2018-09-17T19:26:14.296Z,64.39
2018-09-17T19:31:47.171Z,66.64
2018-09-17T19:34:17.562Z,69.66
2018-09-17T19:36:45.849Z,68.10
2018-09-17T19:42:12.513Z,70.06
2018-09-17T19:44:40.745Z,72.24
2018-09-17T19:47:09.066Z,72.12
2018-09-17T19:49:37.560Z,70.70
2018-09-17T19:52:21.477Z,72.42
2018-09-17T19:54:49.864Z,70.73
2018-09-17T19:57:18.161Z,70.66
2018-09-17T19:59:47.814Z,69.58
2018-09-17T20:02:16.165Z,68.37
2018-09-17T20:04:44.479Z,69.34
2018-09-17T20:07:12.804Z,70.49
2018-09-17T20:09:41.101Z,70.64
2018-09-17T20:12:09.402Z,70.13
2018-09-17T20:14:37.726Z,70.29
2018-09-17T20:17:06.009Z,72.23
2018-09-17T20:19:34.313Z,75.04
2018-09-17T20:22:02.630Z,75.16
2018-09-17T20:24:30.928Z,74.05
2018-09-17T20:26:59.241Z,76.57
2018-09-17T20:29:27.538Z,78.52
2018-09-17T20:31:55.843Z,79.20
2018-09-17T20:34:24.139Z,77.42
2018-09-17T20:36:52.450Z,77.08
2018-09-17T20:39:20.759Z,79.51
2018-09-17T20:41:49.050Z,78.42
2018-09-17T20:44:17.701Z,81.38
2018-09-17T20:46:46.009Z,80.34
2018-09-17T20:49:14.410Z,80.45
2018-09-17T20:51:42.609Z,80.29
2018-09-17T20:54:10.923Z,80.22
2018-09-17T20:56:39.225Z,80.83
2018-09-17T20:59:07.637Z,81.18
2018-09-17T21:01:35.984Z,79.86
2018-09-17T21:04:04.229Z,81.90
2018-09-17T21:06:32.525Z,81.27
2018-09-17T21:09:00.836Z,79.85
2018-09-17T21:11:29.135Z,80.52
2018-09-17T21:13:57.445Z,78.84
2018-09-17T21:16:25.734Z,77.19
2018-09-17T21:18:54.140Z,78.36
2018-09-17T21:21:22.353Z,79.16
2018-09-17T21:23:50.650Z,79.91
2018-09-17T21:26:19.969Z,79.96
2018-09-17T21:28:48.261Z,80.65
2018-09-17T21:31:16.633Z,80.91
2018-09-17T21:33:44.936Z,82.51
2018-09-17T21:36:13.437Z,79.89
2018-09-17T21:38:41.717Z,80.65
2018-09-17T21:41:10.017Z,81.65
2018-09-17T21:43:38.329Z,80.64
2018-09-17T21:46:06.837Z,81.97
2018-09-17T21:48:55.863Z,81.57
2018-09-17T21:51:30.645Z,81.14
2018-09-17T21:53:58.957Z,81.14
2018-09-17T21:56:27.249Z,81.73
2018-09-17T21:58:55.558Z,82.27
2018-09-17T22:01:23.874Z,80.46
2018-09-17T22:03:52.177Z,82.27
2018-09-17T22:06:20.509Z,82.17
2018-09-17T22:08:48.824Z,82.26
2018-09-17T22:11:17.122Z,81.52
2018-09-17T22:13:45.422Z,83.35
2018-09-17T22:16:13.713Z,83.85
2018-09-17T22:18:42.022Z,85.41
2018-09-17T22:21:10.322Z,86.98
2018-09-17T22:23:38.621Z,85.98
2018-09-17T22:26:06.938Z,87.66
2018-09-17T22:28:35.253Z,88.63
2018-09-17T22:31:03.546Z,87.66
2018-09-17T22:33:31.851Z,87.77
2018-09-17T22:36:00.174Z,87.70
2018-09-17T22:38:28.469Z,87.72
2018-09-17T22:40:56.766Z,87.57
2018-09-17T22:43:25.067Z,90.41
2018-09-17T22:45:53.369Z,88.02
2018-09-17T22:48:21.666Z,89.75
2018-09-17T22:50:49.961Z,88.63
2018-09-17T22:53:18.266Z,88.70
2018-09-17T22:55:46.565Z,86.43
2018-09-17T22:58:14.873Z,87.26
2018-09-17T23:00:43.166Z,86.76
2018-09-17T23:03:11.485Z,88.77
2018-09-17T23:05:39.786Z,92.10
2018-09-17T23:08:08.093Z,92.72
2018-09-17T23:10:36.409Z,90.96
2018-09-17T23:13:04.715Z,91.33
2018-09-17T23:15:33.033Z,90.84
2018-09-17T23:18:01.343Z,91.04
2018-09-17T23:20:29.697Z,91.22
2018-09-17T23:22:57.954Z,92.24
2018-09-17T23:25:26.246Z,93.10
2018-09-17T23:27:54.597Z,92.32
2018-09-17T23:30:22.895Z,91.99
2018-09-17T23:32:51.198Z,93.93
2018-09-17T23:35:19.501Z,91.21
2018-09-17T23:37:47.815Z,92.34
2018-09-17T23:40:16.116Z,94.97
2018-09-17T23:42:44.409Z,93.69
2018-09-17T23:45:12.718Z,93.23
2018-09-17T23:47:41.020Z,93.58
2018-09-17T23:50:09.317Z,94.21
2018-09-17T23:52:37.725Z,93.57
2018-09-17T23:55:06.258Z,93.31
2018-09-17T23:57:34.553Z,91.62
